Time;durP1;ratioP1;P1;durP2;ratioP2;P2;SDS_P1;SDS_P2;PMS_P1;PMS_P2;Temp;Humidity;BMP_temperature;BMP_pressure;BME280_temperature;BME280_humidity;BME280_pressure;Samples;Min_cycle;Max_cycle;Signal;HPM_P1;HPM_P2
2022/04/02 00:01:14;;;;;;;592.51;539.55;;;;;;;18.51;42.57;99401.83;;;;-54
2022/04/02 00:04:14;;;;;;;584.96;532.34;;;;;;;18.50;42.55;99399.80;;;;-54
2022/04/02 00:07:13;;;;;;;590.67;537.83;;;;;;;18.48;42.58;99399.72;;;;-53
2022/04/02 00:10:13;;;;;;;585.27;532.76;;;;;;;18.48;42.53;99400.94;;;;-53
2022/04/02 00:13:13;;;;;;;586.85;534.07;;;;;;;18.47;42.62;99405.09;;;;-54
2022/04/02 00:16:13;;;;;;;582.11;529.85;;;;;;;18.46;42.55;99406.70;;;;-54
2022/04/02 00:19:13;;;;;;;581.00;528.83;;;;;;;18.45;42.59;99404.45;;;;-54
2022/04/02 00:22:13;;;;;;;590.45;537.65;;;;;;;18.43;42.56;99407.30;;;;-54
2022/04/02 00:25:13;;;;;;;585.92;533.41;;;;;;;18.43;42.57;99409.07;;;;-53
2022/04/02 00:28:13;;;;;;;592.66;539.63;;;;;;;18.41;42.57;99410.00;;;;-54
2022/04/02 00:31:14;;;;;;;587.14;534.49;;;;;;;18.38;42.56;99405.53;;;;-54
2022/04/02 00:34:13;;;;;;;585.02;531.68;;;;;;;18.38;42.55;99409.19;;;;-53
2022/04/02 00:37:13;;;;;;;581.30;528.11;;;;;;;18.37;42.57;99407.99;;;;-54
2022/04/02 00:40:13;;;;;;;585.20;532.29;;;;;;;18.36;42.54;99406.52;;;;-54
2022/04/02 00:43:13;;;;;;;579.56;526.83;;;;;;;18.35;42.59;99406.06;;;;-55
2022/04/02 00:46:13;;;;;;;585.02;531.99;;;;;;;18.32;42.59;99399.91;;;;-53
2022/04/02 00:49:14;;;;;;;583.15;529.98;;;;;;;18.31;42.64;99396.02;;;;-54
2022/04/02 00:52:13;;;;;;;581.87;528.69;;;;;;;18.30;42.54;99399.28;;;;-53
2022/04/02 00:55:14;;;;;;;578.17;525.25;;;;;;;18.30;42.54;99399.18;;;;-54
2022/04/02 00:58:13;;;;;;;583.06;529.84;;;;;;;18.29;42.55;99395.47;;;;-54
2022/04/02 01:01:13;;;;;;;580.93;527.75;;;;;;;18.26;42.57;99397.92;;;;-54
2022/04/02 01:04:13;;;;;;;580.52;527.37;;;;;;;18.25;42.59;99401.31;;;;-54
2022/04/02 01:07:13;;;;;;;575.97;522.93;;;;;;;18.25;42.60;99403.92;;;;-53
2022/04/02 01:10:14;;;;;;;580.59;527.48;;;;;;;18.24;42.58;99400.83;;;;-54
2022/04/02 01:13:14;;;;;;;580.86;527.82;;;;;;;18.24;42.60;99400.75;;;;-54
2022/04/02 01:16:13;;;;;;;580.91;527.79;;;;;;;18.23;42.50;99402.15;;;;-53
2022/04/02 01:19:14;;;;;;;576.57;523.65;;;;;;;18.22;42.61;99403.44;;;;-53
2022/04/02 01:22:13;;;;;;;574.33;521.39;;;;;;;18.21;42.54;99405.48;;;;-54
2022/04/02 01:25:13;;;;;;;574.39;521.55;;;;;;;18.19;42.53;99412.46;;;;-54
2022/04/02 01:28:13;;;;;;;572.33;519.39;;;;;;;18.19;42.56;99416.60;;;;-53
2022/04/02 01:31:13;;;;;;;568.87;516.29;;;;;;;18.17;42.54;99418.78;;;;-55
2022/04/02 01:34:13;;;;;;;567.38;514.87;;;;;;;18.17;42.69;99419.68;;;;-56
2022/04/02 01:37:13;;;;;;;566.67;514.23;;;;;;;18.15;42.59;99423.02;;;;-55
2022/04/02 01:40:13;;;;;;;567.41;514.86;;;;;;;18.15;42.56;99428.30;;;;-57
2022/04/02 01:43:13;;;;;;;563.11;510.86;;;;;;;18.14;42.58;99430.17;;;;-58
2022/04/02 01:46:13;;;;;;;566.59;514.12;;;;;;;18.13;42.58;99433.72;;;;-57
2022/04/02 01:49:13;;;;;;;571.68;519.03;;;;;;;18.13;42.59;99437.14;;;;-55
2022/04/02 01:52:13;;;;;;;569.42;516.71;;;;;;;18.12;42.55;99442.52;;;;-57
2022/04/02 01:55:13;;;;;;;576.61;523.71;;;;;;;18.11;42.63;99442.42;;;;-57
2022/04/02 01:58:13;;;;;;;578.07;525.01;;;;;;;18.10;42.58;99447.14;;;;-56
2022/04/02 02:01:13;;;;;;;575.11;522.16;;;;;;;18.08;42.57;99447.78;;;;-53
2022/04/02 02:04:13;;;;;;;579.75;526.58;;;;;;;18.08;42.65;99446.49;;;;-55
2022/04/02 02:07:13;;;;;;;574.12;521.34;;;;;;;18.07;42.64;99447.55;;;;-55
2022/04/02 02:10:13;;;;;;;570.63;517.90;;;;;;;18.06;42.63;99449.09;;;;-53
2022/04/02 02:13:13;;;;;;;568.33;515.67;;;;;;;18.05;42.54;99453.05;;;;-54
2022/04/02 02:16:13;;;;;;;571.77;519.03;;;;;;;18.04;42.55;99455.75;;;;-54
2022/04/02 02:19:13;;;;;;;571.15;518.43;;;;;;;18.03;42.68;99460.78;;;;-54
2022/04/02 02:22:13;;;;;;;571.05;518.23;;;;;;;18.03;42.68;99460.37;;;;-54
2022/04/02 02:25:13;;;;;;;570.06;517.37;;;;;;;18.02;42.58;99465.09;;;;-54
2022/04/02 02:28:14;;;;;;;568.25;515.56;;;;;;;18.01;42.59;99461.91;;;;-54
2022/04/02 02:31:13;;;;;;;569.45;516.80;;;;;;;18.01;42.57;99464.34;;;;-56
2022/04/02 02:37:13;;;;;;;559.53;507.31;;;;;;;17.99;42.67;99465.40;;;;-53
2022/04/02 02:40:13;;;;;;;559.18;506.93;;;;;;;17.96;42.61;99460.31;;;;-54
2022/04/02 02:43:13;;;;;;;560.74;508.47;;;;;;;17.96;42.58;99460.55;;;;-54
2022/04/02 02:46:17;;;;;;;556.35;504.13;;;;;;;17.95;42.63;99462.66;;;;-54
2022/04/02 02:49:13;;;;;;;554.93;502.96;;;;;;;17.95;42.56;99467.11;;;;-54
2022/04/02 02:52:13;;;;;;;562.17;509.88;;;;;;;17.94;42.67;99470.54;;;;-55
2022/04/02 02:55:13;;;;;;;562.21;509.72;;;;;;;17.94;42.64;99473.05;;;;-55
2022/04/02 02:58:13;;;;;;;564.14;511.61;;;;;;;17.92;42.68;99476.05;;;;-55
2022/04/02 03:01:13;;;;;;;561.83;509.37;;;;;;;17.92;42.65;99476.87;;;;-54
2022/04/02 03:04:13;;;;;;;566.35;513.73;;;;;;;17.91;42.63;99481.09;;;;-55
2022/04/02 03:07:13;;;;;;;560.43;508.09;;;;;;;17.91;42.58;99482.63;;;;-53
2022/04/02 03:10:13;;;;;;;562.09;509.63;;;;;;;17.91;42.62;99489.20;;;;-56
2022/04/02 03:13:14;;;;;;;559.83;507.61;;;;;;;17.90;42.57;99494.54;;;;-54
2022/04/02 03:16:13;;;;;;;558.97;506.72;;;;;;;17.89;42.61;99492.53;;;;-53
2022/04/02 03:19:13;;;;;;;557.25;505.01;;;;;;;17.88;42.54;99496.48;;;;-55
2022/04/02 03:22:13;;;;;;;560.30;507.96;;;;;;;17.88;42.60;99500.94;;;;-55
2022/04/02 03:25:13;;;;;;;559.95;507.65;;;;;;;17.87;42.58;99498.13;;;;-54
2022/04/02 03:28:14;;;;;;;557.99;505.76;;;;;;;17.86;42.59;99500.53;;;;-54
2022/04/02 03:31:13;;;;;;;555.85;503.74;;;;;;;17.87;42.58;99498.03;;;;-56
2022/04/02 03:34:15;;;;;;;556.09;503.84;;;;;;;17.86;42.53;99503.13;;;;-54
2022/04/02 03:37:13;;;;;;;557.73;505.45;;;;;;;17.85;42.55;99502.34;;;;-56
2022/04/02 03:40:14;;;;;;;557.76;505.55;;;;;;;17.84;42.58;99504.59;;;;-55
2022/04/02 03:43:13;;;;;;;553.28;501.34;;;;;;;17.84;42.60;99507.28;;;;-55
2022/04/02 03:49:14;;;;;;;552.08;499.95;;;;;;;17.83;42.61;99510.86;;;;-55
2022/04/02 03:52:14;;;;;;;552.61;500.61;;;;;;;17.82;42.57;99514.70;;;;-54
2022/04/02 03:55:13;;;;;;;553.78;501.69;;;;;;;17.82;42.58;99518.43;;;;-57
2022/04/02 03:58:13;;;;;;;554.39;502.32;;;;;;;17.81;42.56;99519.09;;;;-52
2022/04/02 04:01:13;;;;;;;552.35;500.42;;;;;;;17.78;42.53;99517.62;;;;-55
2022/04/02 04:04:13;;;;;;;553.49;501.42;;;;;;;17.78;42.52;99520.30;;;;-54
2022/04/02 04:07:14;;;;;;;552.35;500.37;;;;;;;17.78;42.58;99522.23;;;;-54
2022/04/02 04:10:13;;;;;;;554.04;501.92;;;;;;;17.79;42.55;99520.31;;;;-55
2022/04/02 04:13:13;;;;;;;543.55;491.87;;;;;;;17.77;42.59;99526.80;;;;-53
2022/04/02 04:16:13;;;;;;;552.96;500.95;;;;;;;17.77;42.57;99533.77;;;;-54
2022/04/02 04:19:13;;;;;;;552.26;500.25;;;;;;;17.76;42.59;99532.23;;;;-54
2022/04/02 04:22:13;;;;;;;550.07;498.14;;;;;;;17.76;42.55;99530.83;;;;-55
2022/04/02 04:25:13;;;;;;;552.70;500.81;;;;;;;17.74;42.51;99529.16;;;;-54
2022/04/02 04:28:13;;;;;;;552.94;500.85;;;;;;;17.75;42.52;99531.90;;;;-53
2022/04/02 04:31:17;;;;;;;548.78;496.85;;;;;;;17.75;42.52;99538.38;;;;-54
2022/04/02 04:34:13;;;;;;;547.65;495.88;;;;;;;17.75;42.44;99539.19;;;;-54
2022/04/02 04:37:13;;;;;;;547.20;495.39;;;;;;;17.74;42.50;99543.31;;;;-54
2022/04/02 04:40:13;;;;;;;549.97;498.13;;;;;;;17.74;42.42;99548.01;;;;-54
2022/04/02 04:43:13;;;;;;;552.21;500.27;;;;;;;17.71;42.45;99549.81;;;;-51
2022/04/02 04:46:13;;;;;;;553.00;500.95;;;;;;;17.69;42.50;99551.75;;;;-53
2022/04/02 04:49:13;;;;;;;555.91;503.87;;;;;;;17.69;42.56;99550.87;;;;-51
2022/04/02 04:52:13;;;;;;;555.40;503.33;;;;;;;17.70;42.55;99557.01;;;;-53
2022/04/02 04:55:13;;;;;;;552.39;500.44;;;;;;;17.72;42.60;99556.28;;;;-54
2022/04/02 04:58:13;;;;;;;554.07;501.98;;;;;;;17.74;42.54;99557.09;;;;-55
2022/04/02 05:01:14;;;;;;;549.37;497.43;;;;;;;17.75;42.59;99559.44;;;;-53
2022/04/02 05:04:13;;;;;;;551.29;499.48;;;;;;;17.78;42.48;99561.23;;;;-53
2022/04/02 05:07:14;;;;;;;556.60;504.38;;;;;;;17.81;42.51;99569.91;;;;-54
2022/04/02 05:10:13;;;;;;;557.17;504.98;;;;;;;17.84;42.63;99571.45;;;;-54
2022/04/02 05:13:14;;;;;;;562.47;510.15;;;;;;;17.87;42.59;99573.81;;;;-54
2022/04/02 05:16:13;;;;;;;560.41;508.09;;;;;;;17.91;42.58;99580.30;;;;-54
2022/04/02 05:19:13;;;;;;;559.07;506.97;;;;;;;17.94;42.62;99583.20;;;;-55
2022/04/02 05:22:13;;;;;;;555.67;503.06;;;;;;;17.84;41.46;99586.36;;;;-54
2022/04/02 05:25:14;;;;;;;546.87;495.14;;;;;;;17.71;40.43;99594.87;;;;-53
2022/04/02 05:28:13;;;;;;;538.12;486.45;;;;;;;17.63;40.08;99591.38;;;;-55
2022/04/02 05:31:13;;;;;;;532.54;480.90;;;;;;;17.69;40.81;99597.13;;;;-56
2022/04/02 05:34:13;;;;;;;312.01;286.28;;;;;;;17.73;41.27;99599.89;;;;-49
2022/04/02 05:37:13;;;;;;;532.07;482.40;;;;;;;17.76;41.43;99606.59;;;;-54
2022/04/02 05:40:13;;;;;;;543.31;491.60;;;;;;;17.80;41.49;99608.13;;;;-57
2022/04/02 05:43:13;;;;;;;542.30;490.42;;;;;;;17.84;41.61;99617.48;;;;-56
2022/04/02 05:46:14;;;;;;;545.04;493.52;;;;;;;17.88;41.71;99620.81;;;;-53
2022/04/02 05:49:13;;;;;;;547.17;495.23;;;;;;;17.91;41.78;99628.53;;;;-56
2022/04/02 05:52:13;;;;;;;545.01;493.18;;;;;;;17.92;41.80;99628.98;;;;-50
2022/04/02 05:55:13;;;;;;;544.69;493.30;;;;;;;17.94;41.84;99631.67;;;;-55
2022/04/02 05:58:14;;;;;;;548.49;496.65;;;;;;;17.95;41.86;99637.59;;;;-53
2022/04/02 06:01:13;;;;;;;550.81;499.11;;;;;;;17.96;41.85;99639.36;;;;-49
2022/04/02 06:04:13;;;;;;;556.25;504.34;;;;;;;17.98;41.83;99649.27;;;;-48
2022/04/02 06:07:13;;;;;;;556.67;504.44;;;;;;;17.98;41.90;99647.31;;;;-58
2022/04/02 06:10:13;;;;;;;558.68;506.56;;;;;;;17.99;41.95;99652.09;;;;-51
2022/04/02 06:13:13;;;;;;;557.55;505.37;;;;;;;18.00;41.84;99657.45;;;;-54
2022/04/02 06:16:14;;;;;;;562.69;510.29;;;;;;;18.01;41.88;99662.00;;;;-50
2022/04/02 06:19:17;;;;;;;556.64;504.50;;;;;;;18.01;41.94;99666.52;;;;-51
2022/04/02 06:22:13;;;;;;;559.53;507.47;;;;;;;18.02;41.73;99665.55;;;;-54
2022/04/02 06:25:13;;;;;;;563.52;511.09;;;;;;;18.03;41.81;99672.86;;;;-55
2022/04/02 06:28:13;;;;;;;556.26;503.91;;;;;;;18.05;41.83;99678.43;;;;-55
2022/04/02 06:31:14;;;;;;;558.48;505.71;;;;;;;18.05;41.80;99679.34;;;;-55
2022/04/02 06:34:14;;;;;;;556.60;504.53;;;;;;;18.07;41.77;99686.38;;;;-55
2022/04/02 06:37:13;;;;;;;553.29;501.29;;;;;;;18.06;41.79;99686.23;;;;-56
2022/04/02 06:40:13;;;;;;;552.79;500.90;;;;;;;18.05;41.77;99692.16;;;;-55
2022/04/02 06:43:13;;;;;;;551.28;499.37;;;;;;;18.05;41.76;99694.48;;;;-54
2022/04/02 06:46:13;;;;;;;550.92;498.85;;;;;;;18.05;41.76;99701.95;;;;-53
2022/04/02 06:49:13;;;;;;;550.97;499.23;;;;;;;18.05;41.72;99702.34;;;;-52
2022/04/02 06:52:14;;;;;;;553.85;501.99;;;;;;;18.05;41.70;99705.67;;;;-52
2022/04/02 06:55:14;;;;;;;552.85;500.97;;;;;;;18.05;41.77;99702.43;;;;-50
2022/04/02 06:58:13;;;;;;;552.97;501.19;;;;;;;18.04;41.72;99711.77;;;;-56
2022/04/02 07:01:13;;;;;;;554.66;502.73;;;;;;;18.05;41.73;99715.41;;;;-57
2022/04/02 07:04:13;;;;;;;552.75;500.91;;;;;;;18.04;41.69;99720.84;;;;-55
2022/04/02 07:07:13;;;;;;;547.13;495.45;;;;;;;18.03;41.73;99720.43;;;;-52
2022/04/02 07:10:13;;;;;;;547.07;495.30;;;;;;;18.03;41.74;99725.13;;;;-51
2022/04/02 07:13:15;;;;;;;547.03;495.53;;;;;;;18.03;41.74;99725.45;;;;-52
2022/04/02 07:16:16;;;;;;;546.97;495.31;;;;;;;18.02;41.74;99734.37;;;;-54
2022/04/02 07:19:13;;;;;;;543.50;492.01;;;;;;;18.02;41.70;99735.60;;;;-54
2022/04/02 07:22:13;;;;;;;549.99;498.34;;;;;;;18.02;41.70;99739.00;;;;-53
2022/04/02 07:25:14;;;;;;;546.93;495.21;;;;;;;18.01;41.74;99742.25;;;;-53
2022/04/02 07:28:13;;;;;;;544.55;493.10;;;;;;;18.01;41.75;99743.28;;;;-56
2022/04/02 07:31:13;;;;;;;547.15;495.69;;;;;;;18.00;41.67;99749.70;;;;-56
2022/04/02 07:34:15;;;;;;;549.87;498.13;;;;;;;18.00;41.73;99757.16;;;;-55
2022/04/02 07:37:13;;;;;;;557.01;504.77;;;;;;;18.00;41.96;99759.27;;;;-53
2022/04/02 07:40:13;;;;;;;554.43;502.19;;;;;;;18.02;42.40;99765.52;;;;-57
2022/04/02 07:43:13;;;;;;;556.57;504.42;;;;;;;18.03;42.37;99773.06;;;;-56
2022/04/02 07:46:13;;;;;;;560.25;508.11;;;;;;;18.07;42.71;99775.80;;;;-58
2022/04/02 07:49:13;;;;;;;555.71;503.72;;;;;;;18.11;42.99;99776.62;;;;-58
2022/04/02 07:52:14;;;;;;;556.45;504.47;;;;;;;18.16;42.97;99782.39;;;;-58
2022/04/02 07:55:13;;;;;;;558.61;506.51;;;;;;;18.22;42.84;99784.19;;;;-52
2022/04/02 07:58:13;;;;;;;556.97;505.17;;;;;;;18.26;42.52;99792.60;;;;-52
2022/04/02 08:01:13;;;;;;;569.45;517.40;;;;;;;18.28;42.44;99795.63;;;;-50
2022/04/02 08:04:13;;;;;;;568.87;517.12;;;;;;;18.32;42.40;99796.74;;;;-53
2022/04/02 08:07:13;;;;;;;579.39;526.69;;;;;;;18.36;42.38;99804.16;;;;-52
2022/04/02 08:10:13;;;;;;;578.97;526.06;;;;;;;18.41;42.31;99807.69;;;;-52
2022/04/02 08:13:13;;;;;;;578.11;525.29;;;;;;;18.44;42.33;99812.25;;;;-54
2022/04/02 08:16:13;;;;;;;575.95;523.11;;;;;;;18.48;42.25;99817.13;;;;-53
2022/04/02 08:19:14;;;;;;;577.86;524.92;;;;;;;18.51;42.30;99814.44;;;;-52
2022/04/02 08:22:16;;;;;;;575.25;522.50;;;;;;;18.54;42.22;99816.47;;;;-51
2022/04/02 08:25:13;;;;;;;570.68;518.06;;;;;;;18.57;42.24;99823.76;;;;-52
2022/04/02 08:28:13;;;;;;;571.78;519.17;;;;;;;18.60;42.20;99820.28;;;;-51
2022/04/02 08:31:13;;;;;;;573.79;521.13;;;;;;;18.63;42.21;99828.22;;;;-51
2022/04/02 08:34:13;;;;;;;564.97;512.92;;;;;;;18.66;42.21;99829.05;;;;-51
2022/04/02 08:37:13;;;;;;;568.36;516.13;;;;;;;18.70;42.16;99837.49;;;;-53
2022/04/02 08:40:13;;;;;;;568.17;515.85;;;;;;;18.76;42.53;99843.34;;;;-57
2022/04/02 08:43:13;;;;;;;573.16;520.51;;;;;;;18.81;42.61;99847.56;;;;-59
2022/04/02 08:46:13;;;;;;;576.50;523.88;;;;;;;18.87;42.41;99853.98;;;;-54
2022/04/02 08:49:13;;;;;;;578.40;525.75;;;;;;;18.92;42.46;99857.05;;;;-57
2022/04/02 08:52:13;;;;;;;578.39;525.69;;;;;;;18.98;42.68;99862.40;;;;-53
2022/04/02 08:55:13;;;;;;;581.74;528.95;;;;;;;19.05;42.74;99868.64;;;;-51
2022/04/02 08:58:13;;;;;;;580.62;528.03;;;;;;;19.10;42.71;99876.53;;;;-54
2022/04/02 09:01:13;;;;;;;583.27;530.43;;;;;;;19.15;42.80;99880.00;;;;-54
2022/04/02 09:04:13;;;;;;;596.08;542.56;;;;;;;19.18;42.62;99882.36;;;;-52
2022/04/02 09:09:13;;;;;;;590.55;537.05;;;;;;;19.26;42.65;99889.48;;;;-54
2022/04/02 09:12:13;;;;;;;594.78;541.19;;;;;;;19.29;42.52;99893.38;;;;-56
2022/04/02 09:15:15;;;;;;;608.57;554.35;;;;;;;19.34;42.55;99896.72;;;;-53
2022/04/02 09:18:13;;;;;;;613.92;559.13;;;;;;;19.37;42.31;99899.95;;;;-56
2022/04/02 09:21:13;;;;;;;613.51;558.72;;;;;;;19.37;42.18;99902.71;;;;-55
2022/04/02 09:24:13;;;;;;;615.56;560.87;;;;;;;19.42;42.28;99905.54;;;;-56
2022/04/02 09:27:13;;;;;;;620.93;565.99;;;;;;;19.44;42.25;99903.91;;;;-50
2022/04/02 09:30:13;;;;;;;619.29;564.27;;;;;;;19.48;42.27;99907.64;;;;-53
2022/04/02 09:33:13;;;;;;;618.09;563.25;;;;;;;19.51;42.22;99913.66;;;;-54
2022/04/02 09:36:13;;;;;;;622.14;567.03;;;;;;;19.54;42.17;99913.08;;;;-53
2022/04/02 09:39:14;;;;;;;622.19;567.23;;;;;;;19.57;42.14;99918.52;;;;-58
2022/04/02 09:42:13;;;;;;;627.93;572.71;;;;;;;19.60;42.20;99918.09;;;;-58
2022/04/02 09:45:14;;;;;;;623.53;568.53;;;;;;;19.65;42.10;99923.86;;;;-55
2022/04/02 09:48:13;;;;;;;635.03;579.57;;;;;;;19.65;41.88;99927.17;;;;-55
2022/04/02 09:51:13;;;;;;;563.77;514.35;;;;;;;19.67;41.82;99933.45;;;;-55
2022/04/02 09:54:13;;;;;;;472.31;431.85;;;;;;;19.67;41.78;99932.20;;;;-55
2022/04/02 09:57:13;;;;;;;573.61;523.53;;;;;;;19.68;41.75;99930.75;;;;-57
2022/04/02 10:00:13;;;;;;;589.17;537.55;;;;;;;19.70;41.74;99937.83;;;;-55
2022/04/02 10:03:13;;;;;;;597.72;545.29;;;;;;;19.72;41.73;99940.05;;;;-56
2022/04/02 10:06:13;;;;;;;602.72;550.26;;;;;;;19.72;41.65;99942.48;;;;-54
2022/04/02 10:09:13;;;;;;;596.76;544.60;;;;;;;19.74;41.69;99944.59;;;;-57
2022/04/02 10:12:13;;;;;;;597.84;545.57;;;;;;;19.80;41.88;99946.36;;;;-53
2022/04/02 10:15:14;;;;;;;617.96;564.27;;;;;;;19.86;41.81;99951.44;;;;-58
2022/04/02 10:18:14;;;;;;;641.31;585.76;;;;;;;19.88;41.87;99949.11;;;;-51
2022/04/02 10:21:13;;;;;;;634.05;579.21;;;;;;;19.91;41.81;99945.66;;;;-50
2022/04/02 10:24:13;;;;;;;639.41;584.23;;;;;;;19.95;41.88;99952.08;;;;-48
2022/04/02 10:27:14;;;;;;;639.55;584.04;;;;;;;19.96;41.78;99952.08;;;;-55
2022/04/02 10:30:13;;;;;;;642.59;586.93;;;;;;;20.00;41.75;99957.17;;;;-57
2022/04/02 10:33:31;;;;;;;639.63;584.52;;;;;;;20.03;41.77;99952.28;;;;-49
2022/04/02 10:36:13;;;;;;;639.06;583.93;;;;;;;20.05;41.74;99960.34;;;;-53
2022/04/02 10:39:13;;;;;;;646.04;590.55;;;;;;;20.06;41.76;99960.06;;;;-54
2022/04/02 10:42:13;;;;;;;646.47;590.25;;;;;;;20.07;41.76;99962.52;;;;-57
2022/04/02 10:45:14;;;;;;;642.95;586.90;;;;;;;20.10;41.77;99967.62;;;;-54
2022/04/02 10:48:13;;;;;;;645.09;588.97;;;;;;;20.12;41.76;99969.89;;;;-55
2022/04/02 10:51:13;;;;;;;647.63;591.45;;;;;;;20.15;41.69;99976.47;;;;-58
2022/04/02 10:54:16;;;;;;;648.01;591.77;;;;;;;20.16;41.75;99975.73;;;;-60
2022/04/02 10:57:13;;;;;;;653.00;595.70;;;;;;;20.19;41.72;99979.23;;;;-59
2022/04/02 11:00:13;;;;;;;655.61;599.01;;;;;;;20.21;41.74;99983.77;;;;-53
2022/04/02 11:03:14;;;;;;;656.26;599.44;;;;;;;20.23;41.68;99982.47;;;;-59
2022/04/02 11:06:13;;;;;;;651.97;595.49;;;;;;;20.23;41.67;99985.89;;;;-54
2022/04/02 11:09:13;;;;;;;657.93;601.35;;;;;;;20.24;41.80;99988.81;;;;-56
2022/04/02 11:12:15;;;;;;;665.62;608.73;;;;;;;20.26;41.73;99990.02;;;;-52
2022/04/02 11:15:13;;;;;;;654.35;597.83;;;;;;;20.26;41.69;99996.11;;;;-56
2022/04/02 11:18:13;;;;;;;656.74;600.17;;;;;;;20.28;41.67;100007.34;;;;-60
2022/04/02 11:21:13;;;;;;;656.07;599.37;;;;;;;20.31;41.67;100006.34;;;;-52
2022/04/02 11:24:13;;;;;;;653.70;597.26;;;;;;;20.28;41.45;100005.16;;;;-56
2022/04/02 11:27:13;;;;;;;654.85;598.18;;;;;;;20.26;41.44;100007.19;;;;-47
2022/04/02 11:30:13;;;;;;;647.79;591.56;;;;;;;20.24;41.44;100011.75;;;;-56
2022/04/02 11:33:14;;;;;;;650.25;593.95;;;;;;;20.24;41.37;100011.59;;;;-58
2022/04/02 11:36:13;;;;;;;649.97;593.67;;;;;;;20.21;41.34;100012.16;;;;-52
2022/04/02 11:39:15;;;;;;;648.13;591.85;;;;;;;20.21;41.27;100017.05;;;;-51
2022/04/02 11:42:13;;;;;;;644.40;588.37;;;;;;;20.19;41.35;100019.97;;;;-50
2022/04/02 11:45:13;;;;;;;646.75;590.52;;;;;;;20.18;41.33;100025.59;;;;-50
2022/04/02 11:48:13;;;;;;;643.80;587.80;;;;;;;20.17;41.30;100026.65;;;;-51
2022/04/02 11:51:14;;;;;;;643.06;586.97;;;;;;;20.17;41.20;100027.95;;;;-51
2022/04/02 11:54:13;;;;;;;646.87;590.70;;;;;;;20.16;41.11;100028.28;;;;-50
2022/04/02 11:57:13;;;;;;;646.22;590.05;;;;;;;20.16;41.30;100031.47;;;;-51
2022/04/02 12:00:13;;;;;;;642.78;586.87;;;;;;;20.16;41.19;100028.95;;;;-50
2022/04/02 12:03:13;;;;;;;643.11;587.09;;;;;;;20.16;41.27;100034.16;;;;-50
2022/04/02 12:06:13;;;;;;;643.35;587.34;;;;;;;20.18;41.18;100038.79;;;;-50
2022/04/02 12:09:14;;;;;;;645.05;589.02;;;;;;;20.17;41.26;100046.17;;;;-51
2022/04/02 12:12:13;;;;;;;644.35;588.29;;;;;;;20.17;41.22;100044.55;;;;-51
2022/04/02 12:15:13;;;;;;;646.65;590.44;;;;;;;20.17;41.08;100049.12;;;;-58
2022/04/02 12:18:13;;;;;;;642.52;586.49;;;;;;;20.18;41.31;100050.42;;;;-47
2022/04/02 12:21:13;;;;;;;644.22;588.24;;;;;;;20.19;41.19;100055.05;;;;-51
2022/04/02 12:24:13;;;;;;;642.62;586.61;;;;;;;20.19;41.08;100061.08;;;;-51
2022/04/02 12:27:13;;;;;;;642.95;586.83;;;;;;;20.19;41.07;100058.23;;;;-47
2022/04/02 12:30:13;;;;;;;648.45;592.23;;;;;;;20.19;41.21;100059.78;;;;-47
2022/04/02 12:33:15;;;;;;;645.13;589.05;;;;;;;20.21;41.08;100063.52;;;;-47
2022/04/02 12:36:13;;;;;;;645.85;589.68;;;;;;;20.22;41.11;100064.81;;;;-52
2022/04/02 12:39:13;;;;;;;643.93;587.97;;;;;;;20.22;41.09;100070.11;;;;-51
2022/04/02 12:42:13;;;;;;;645.71;589.53;;;;;;;20.22;41.15;100071.07;;;;-50
2022/04/02 12:45:13;;;;;;;647.01;590.75;;;;;;;20.23;41.15;100074.48;;;;-47
2022/04/02 12:48:17;;;;;;;645.88;589.81;;;;;;;20.24;41.16;100082.80;;;;-47
2022/04/02 12:51:13;;;;;;;649.67;593.40;;;;;;;20.24;41.17;100080.27;;;;-49
2022/04/02 12:54:13;;;;;;;644.04;588.25;;;;;;;20.25;41.11;100087.57;;;;-51
2022/04/02 12:57:13;;;;;;;642.31;586.51;;;;;;;20.25;41.17;100092.15;;;;-51
2022/04/02 13:00:13;;;;;;;642.85;586.77;;;;;;;20.26;41.16;100095.70;;;;-50
2022/04/02 13:03:13;;;;;;;645.49;589.38;;;;;;;20.27;41.14;100094.80;;;;-51
2022/04/02 13:06:13;;;;;;;650.03;593.61;;;;;;;20.28;41.11;100093.42;;;;-50
2022/04/02 13:09:13;;;;;;;649.41;593.09;;;;;;;20.29;41.09;100095.86;;;;-51
2022/04/02 13:12:13;;;;;;;648.26;591.87;;;;;;;20.31;41.12;100100.65;;;;-54
2022/04/02 13:15:14;;;;;;;647.35;591.13;;;;;;;20.33;41.11;100103.74;;;;-50
2022/04/02 13:21:13;;;;;;;650.13;593.82;;;;;;;20.33;41.08;100101.30;;;;-51
2022/04/02 13:24:13;;;;;;;649.33;593.03;;;;;;;20.33;41.16;100101.87;;;;-50
2022/04/02 13:27:13;;;;;;;652.23;595.85;;;;;;;20.35;40.99;100103.89;;;;-50
2022/04/02 13:31:13;;;;;;;636.35;580.19;;;;;;;20.40;41.06;100103.09;;;;-53
2022/04/02 13:34:13;;;;;;;645.91;589.67;;;;;;;20.43;41.35;100101.45;;;;-53
2022/04/02 13:37:13;;;;;;;645.01;589.00;;;;;;;20.46;41.23;100107.05;;;;-56
2022/04/02 13:40:13;;;;;;;641.79;586.03;;;;;;;20.48;41.31;100108.66;;;;-57
2022/04/02 13:43:13;;;;;;;647.87;591.56;;;;;;;20.52;41.17;100107.09;;;;-56
2022/04/02 13:46:13;;;;;;;660.73;604.03;;;;;;;20.50;41.11;100110.36;;;;-55
2022/04/02 13:49:13;;;;;;;650.67;594.17;;;;;;;20.49;41.16;100108.59;;;;-55
2022/04/02 13:52:13;;;;;;;651.88;595.51;;;;;;;20.47;41.11;100109.97;;;;-50
2022/04/02 13:55:13;;;;;;;655.31;598.72;;;;;;;20.48;41.16;100110.44;;;;-50
2022/04/02 13:58:13;;;;;;;652.82;596.21;;;;;;;20.52;41.08;100111.08;;;;-55
2022/04/02 14:01:13;;;;;;;655.87;599.41;;;;;;;20.55;41.00;100112.15;;;;-60
2022/04/02 14:04:13;;;;;;;661.67;604.83;;;;;;;20.59;40.98;100120.06;;;;-59
2022/04/02 14:07:13;;;;;;;654.87;598.41;;;;;;;20.59;41.17;100120.70;;;;-59
2022/04/02 14:10:13;;;;;;;660.48;603.51;;;;;;;20.60;40.96;100123.38;;;;-58
2022/04/02 14:13:13;;;;;;;658.09;601.49;;;;;;;20.58;41.09;100129.09;;;;-60
2022/04/02 14:16:13;;;;;;;658.14;601.46;;;;;;;20.56;41.00;100126.45;;;;-58
2022/04/02 14:19:13;;;;;;;657.24;600.60;;;;;;;20.55;41.06;100129.00;;;;-59
2022/04/02 14:22:13;;;;;;;656.04;599.29;;;;;;;20.55;40.96;100129.49;;;;-61
2022/04/02 14:25:14;;;;;;;655.09;598.51;;;;;;;20.54;40.93;100132.57;;;;-57
2022/04/02 14:28:13;;;;;;;656.19;599.53;;;;;;;20.53;40.99;100132.26;;;;-58
2022/04/02 14:31:13;;;;;;;658.21;601.47;;;;;;;20.54;40.85;100131.19;;;;-57
2022/04/02 14:34:13;;;;;;;654.85;598.31;;;;;;;20.56;41.14;100138.09;;;;-51
2022/04/02 14:37:14;;;;;;;656.41;600.21;;;;;;;20.57;41.10;100139.49;;;;-54
2022/04/02 14:41:14;;;;;;;650.80;594.97;;;;;;;20.58;41.13;100142.59;;;;-61
2022/04/02 14:44:13;;;;;;;656.72;600.60;;;;;;;20.59;41.18;100143.91;;;;-50
2022/04/02 14:47:13;;;;;;;660.99;604.66;;;;;;;20.60;41.15;100138.52;;;;-59
2022/04/02 14:50:13;;;;;;;665.64;609.03;;;;;;;20.62;41.21;100141.84;;;;-54
2022/04/02 14:53:13;;;;;;;663.78;607.24;;;;;;;20.64;41.17;100140.80;;;;-55
2022/04/02 14:57:13;;;;;;;658.41;602.08;;;;;;;20.66;41.18;100143.88;;;;-49
2022/04/02 15:03:14;;;;;;;647.44;591.73;;;;;;;20.69;41.35;100145.02;;;;-53
2022/04/02 15:08:13;;;;;;;642.50;587.25;;;;;;;20.71;41.34;100148.36;;;;-54
2022/04/02 15:11:13;;;;;;;657.28;600.93;;;;;;;20.71;41.08;100152.27;;;;-55
2022/04/02 15:14:13;;;;;;;664.99;608.07;;;;;;;20.70;41.05;100153.64;;;;-55
2022/04/02 15:17:13;;;;;;;668.10;611.13;;;;;;;20.69;40.91;100153.00;;;;-55
2022/04/02 15:20:13;;;;;;;667.86;611.00;;;;;;;20.69;40.99;100158.35;;;;-54
2022/04/02 15:23:13;;;;;;;670.20;612.97;;;;;;;20.69;41.02;100164.23;;;;-54
2022/04/02 15:26:13;;;;;;;668.69;611.65;;;;;;;20.69;40.89;100169.13;;;;-55
2022/04/02 15:29:13;;;;;;;671.71;614.48;;;;;;;20.70;40.83;100166.67;;;;-53
2022/04/02 15:32:13;;;;;;;667.45;610.23;;;;;;;20.73;40.94;100174.30;;;;-52
2022/04/02 15:35:13;;;;;;;669.88;612.91;;;;;;;20.74;41.14;100174.14;;;;-54
2022/04/02 15:38:13;;;;;;;669.33;611.62;;;;;;;20.75;40.89;100177.71;;;;-54
2022/04/02 15:41:14;;;;;;;668.45;610.87;;;;;;;20.73;40.89;100180.92;;;;-50
2022/04/02 15:44:13;;;;;;;667.33;609.61;;;;;;;20.74;40.89;100185.31;;;;-57
2022/04/02 15:47:13;;;;;;;668.04;610.95;;;;;;;20.76;40.92;100191.00;;;;-54
2022/04/02 15:52:13;;;;;;;656.95;600.57;;;;;;;20.79;40.99;100192.77;;;;-55
2022/04/02 15:55:13;;;;;;;666.30;609.29;;;;;;;20.78;40.80;100201.26;;;;-55
2022/04/02 15:58:13;;;;;;;669.34;611.97;;;;;;;20.77;40.89;100205.09;;;;-51
2022/04/02 16:01:15;;;;;;;675.45;617.91;;;;;;;20.79;41.03;100205.88;;;;-50
2022/04/02 16:04:13;;;;;;;668.35;611.35;;;;;;;20.82;41.03;100209.55;;;;-51
2022/04/02 16:07:13;;;;;;;672.79;615.56;;;;;;;20.82;41.06;100204.75;;;;-52
2022/04/02 16:10:13;;;;;;;668.59;611.77;;;;;;;20.83;41.08;100208.07;;;;-53
2022/04/02 16:13:13;;;;;;;672.59;615.41;;;;;;;20.85;41.08;100208.80;;;;-56
2022/04/02 16:16:13;;;;;;;678.50;620.63;;;;;;;20.85;41.08;100209.13;;;;-57
2022/04/02 16:19:13;;;;;;;670.95;613.87;;;;;;;20.84;41.05;100215.33;;;;-53